FW8813 Weather Reports


Display with metric or nautical units.
time (UTC)temp
F
wind
direction
speed
MPH
gust
MPH
rain 1hr
in
rain 24hr
in
rain mn
in
humidity
%
barometer
mb
20210802084555 70 25 2.0 9.0 0.00 0.00 0.00 61 1015.5
20210802084039 70 261 3.0 10.0 0.00 0.00 0.00 62 1015.4
20210802083536 69 30 3.0 10.0 0.00 0.00 0.00 63 1015.4
20210802083117 69 247 1.0 5.0 0.00 0.00 0.00 64 1015.4
20210802082535 70 278 2.0 5.0 0.00 0.00 0.00 66 1015.3
20210802082032 70 279 2.0 5.0 0.00 0.00 0.00 63 1015.2
20210802081633 70 278 1.0 6.0 0.00 0.00 0.00 65 1015.0
20210802081035 70 302 2.0 6.0 0.00 0.00 0.00 66 1015.0
20210802080545 69 286 2.0 3.0 0.00 0.00 0.00 67 1015.0
20210802080056 68 285 1.0 3.0 0.00 0.00 0.00 69 1014.9
20210802075531 68 285 0.0 1.0 0.00 0.00 0.00 70 1015.1
20210802075032 68 0 0.0 2.0 0.00 0.00 0.00 71 1015.0
20210802074618 69 0 0.0 2.0 0.00 0.00 0.00 68 1014.9
20210802074040 70 0 0.0 4.0 0.00 0.00 0.00 66 1014.8
20210802073534 70 274 1.0 5.0 0.00 0.00 0.00 66 1014.8
20210802073110 70 285 3.0 7.0 0.00 0.00 0.00 66 1014.9
20210802072537 69 271 3.0 10.0 0.00 0.00 0.00 68 1014.9
20210802072034 69 277 4.0 10.0 0.00 0.00 0.00 68 1014.8
20210802071610 70 288 2.0 7.0 0.00 0.00 0.00 67 1014.8
20210802071039 70 282 3.0 7.0 0.00 0.00 0.00 66 1014.7
20210802070534 69 281 2.0 5.0 0.00 0.00 0.00 68 1014.8
20210802070128 70 286 3.0 5.0 0.00 0.00 0.00 66 1014.8
20210802065534 70 278 2.0 3.0 0.00 0.00 0.00 66 1014.9
20210802065051 71 293 1.0 5.0 0.00 0.00 0.00 65 1014.8
20210802064617 71 296 2.0 9.0 0.00 0.00 0.00 64 1014.9
20210802064038 71 319 5.0 11.0 0.00 0.00 0.00 64 1015.0
20210802063536 71 266 5.0 11.0 0.00 0.00 0.00 64 1015.0
20210802063127 71 269 3.0 8.0 0.00 0.00 0.00 65 1014.9
20210802062537 71 250 4.0 7.0 0.00 0.00 0.00 64 1014.9
20210802062032 71 278 4.0 7.0 0.00 0.00 0.00 65 1015.0
20210802061625 71 252 4.0 7.0 0.00 0.00 0.00 65 1015.0
20210802061040 70 302 1.0 4.0 0.00 0.00 0.00 65 1015.0
20210802060532 70 291 2.0 4.0 0.00 0.00 0.00 66 1015.0
20210802060148 70 269 2.0 3.0 0.00 0.00 0.00 67 1015.0
20210802055532 69 281 1.0 4.0 0.00 0.00 0.00 68 1015.0
20210802055039 69 283 2.0 4.0 0.00 0.00 0.00 68 1015.0
20210802054542 69 276 2.0 4.0 0.00 0.00 0.00 67 1015.0
20210802054032 69 283 1.0 4.0 0.00 0.00 0.00 68 1015.1
20210802053532 69 283 1.0 3.0 0.00 0.00 0.00 69 1015.1
20210802053057 70 285 2.0 3.0 0.00 0.00 0.00 66 1015.0
20210802052532 69 302 2.0 7.0 0.00 0.00 0.00 67 1015.1
20210802052035 69 282 3.0 7.0 0.00 0.00 0.00 68 1015.2
20210802051610 68 276 2.0 5.0 0.00 0.00 0.00 72 1015.1
20210802051035 66 282 2.0 3.0 0.00 0.00 0.00 77 1015.2
20210802050534 65 250 1.0 4.0 0.00 0.00 0.00 77 1015.2
20210802050159 65 0 0.0 4.0 0.00 0.00 0.00 80 1015.2
20210802045532 67 213 0.0 1.0 0.00 0.00 0.00 77 1015.1
20210802045036 68 0 0.0 2.0 0.00 0.00 0.00 73 1015.1
20210802044555 68 259 1.0 2.0 0.00 0.00 0.00 70 1015.1
20210802044041 68 0 0.0 1.0 0.00 0.00 0.00 74 1015.3
20210802043536 70 0 0.0 1.0 0.00 0.00 0.00 70 1015.2
20210802043101 71 278 1.0 2.0 0.00 0.00 0.00 65 1015.2
20210802042534 71 249 0.0 3.0 0.00 0.00 0.00 64 1015.1
20210802042034 72 277 1.0 5.0 0.00 0.00 0.00 63 1015.3
20210802041710 72 281 1.0 6.0 0.00 0.00 0.00 65 1015.3
20210802041034 72 266 3.0 6.0 0.00 0.00 0.00 64 1015.1
20210802040546 71 263 1.0 7.0 0.00 0.00 0.00 65 1015.1
20210802040142 71 276 3.0 7.0 0.00 0.00 0.00 65 1015.1
20210802035554 71 278 1.0 3.0 0.00 0.00 0.00 68 1015.1
20210802035034 71 281 1.0 3.0 0.00 0.00 0.00 65 1015.0
20210802034619 71 275 1.0 5.0 0.00 0.00 0.00 68 1015.1
20210802034032 72 282 2.0 5.0 0.00 0.00 0.00 63 1015.1
20210802033535 71 288 2.0 4.0 0.00 0.00 0.00 65 1014.9
20210802033141 70 288 0.0 2.0 0.00 0.00 0.00 68 1015.0
20210802032532 70 271 0.0 2.0 0.00 0.00 0.00 69 1015.0
20210802032032 70 0 0.0 2.0 0.00 0.00 0.00 69 1015.0
20210802031722 71 0 0.0 3.0 0.00 0.00 0.00 67 1014.9
20210802031033 72 10 0.0 3.0 0.00 0.00 0.00 63 1014.8
20210802030536 73 342 1.0 4.0 0.00 0.00 0.00 64 1014.9
20210802030107 73 281 2.0 4.0 0.00 0.00 0.00 61 1015.0
20210802025544 73 285 2.0 5.0 0.00 0.00 0.00 62 1015.0
20210802025033 73 283 3.0 5.0 0.00 0.00 0.00 63 1015.0
20210802024630 73 269 3.0 8.0 0.00 0.00 0.00 63 1015.0
20210802024032 70 273 3.0 8.0 0.00 0.00 0.00 70 1015.0
20210802023533 70 319 2.0 3.0 0.00 0.00 0.00 73 1015.1
20210802023132 70 290 1.0 3.0 0.00 0.00 0.00 77 1015.0
20210802022601 70 284 1.0 3.0 0.00 0.00 0.00 75 1014.9
20210802022034 70 256 1.0 3.0 0.00 0.00 0.00 72 1014.8
20210802021611 71 291 1.0 3.0 0.00 0.00 0.00 72 1014.9
20210802021041 72 290 0.0 2.0 0.00 0.00 0.00 67 1014.9
20210802020604 71 294 0.0 3.0 0.00 0.00 0.00 72 1014.9
20210802020155 71 253 0.0 3.0 0.00 0.00 0.00 77 1014.8
20210802015540 71 278 0.0 3.0 0.00 0.00 0.00 76 1014.7
20210802015040 71 1 1.0 3.0 0.00 0.00 0.00 72 1014.6
20210802014554 70 0 0.0 2.0 0.00 0.00 0.00 75 1014.5
20210802014034 70 0 0.0 1.0 0.00 0.00 0.00 76 1014.5
20210802013546 70 0 0.0 1.0 0.00 0.00 0.00 79 1014.3
20210802013227 70 144 1.0 1.0 0.00 0.00 0.00 78 1014.3
20210802012559 71 0 0.0 1.0 0.00 0.00 0.00 76 1014.3
20210802012047 72 77 0.0 1.0 0.00 0.00 0.00 73 1013.9
20210802011707 73 0 0.0 1.0 0.00 0.00 0.00 69 1013.9
20210802011034 74 0 0.0 1.0 0.00 0.00 0.00 67 1013.7
20210802010536 75 0 0.0 1.0 0.00 0.00 0.00 66 1013.6
20210802010203 75 0 0.0 1.0 0.00 0.00 0.00 65 1013.5
20210802005537 76 0 0.0 3.0 0.00 0.00 0.00 62 1013.5
20210802005034 77 0 0.0 5.0 0.00 0.00 0.00 61 1013.4
20210802004640 77 17 2.0 5.0 0.00 0.00 0.00 60 1013.2
20210802004032 77 348 1.0 3.0 0.00 0.00 0.00 60 1013.2
20210802003535 77 358 2.0 4.0 0.00 0.00 0.00 60 1013.1
20210802003125 77 320 1.0 4.0 0.00 0.00 0.00 60 1013.0
20210802002547 77 262 2.0 3.0 0.00 0.00 0.00 60 1013.0
20210802002033 78 283 2.0 3.0 0.00 0.00 0.00 59 1012.9
20210802001609 78 288 2.0 4.0 0.00 0.00 0.00 58 1013.0
20210802001032 78 322 2.0 5.0 0.00 0.00 0.00 57 1012.9
20210802000533 79 318 2.0 5.0 0.00 0.00 0.00 57 1012.8
20210802000113 79 326 2.0 8.0 0.00 0.00 0.00 57 1012.7
20210801235544 79 297 3.0 8.0 0.00 0.00 0.00 57 1012.7
20210801235033 79 297 2.0 6.0 0.00 0.00 0.00 56 1012.5
20210801234615 80 319 2.0 6.0 0.00 0.00 0.00 59 1012.6
20210801234042 80 326 1.0 5.0 0.00 0.00 0.00 58 1012.5
20210801233535 81 334 3.0 5.0 0.00 0.00 0.00 57 1012.4
20210801233150 81 348 2.0 6.0 0.00 0.00 0.00 58 1012.3
20210801232539 82 300 2.0 6.0 0.00 0.00 0.00 56 1012.4
20210801232033 82 12 2.0 6.0 0.00 0.00 0.00 56 1012.3
20210801231609 83 355 3.0 6.0 0.00 0.00 0.00 55 1012.4
20210801231032 83 293 1.0 4.0 0.00 0.00 0.00 56 1012.1
20210801230550 84 331 2.0 6.0 0.00 0.00 0.00 56 1012.3
20210801230146 84 283 3.0 6.0 0.00 0.00 0.00 55 1012.0
20210801225531 84 314 2.0 3.0 0.00 0.00 0.00 56 1011.9
20210801225038 84 316 2.0 5.0 0.00 0.00 0.00 58 1011.8
20210801224544 84 343 3.0 5.0 0.00 0.00 0.00 57 1011.9
20210801224032 84 277 1.0 2.0 0.00 0.00 0.00 60 1011.7
20210801223548 84 256 1.0 3.0 0.00 0.00 0.00 59 1011.6
20210801223152 84 279 2.0 3.0 0.00 0.00 0.00 58 1011.6
20210801222534 84 272 1.0 4.0 0.00 0.00 0.00 60 1011.5
20210801222032 84 282 2.0 4.0 0.00 0.00 0.00 57 1011.5
20210801221635 85 288 1.0 4.0 0.00 0.00 0.00 60 1011.4
20210801221032 84 273 2.0 4.0 0.00 0.00 0.00 57 1011.2
20210801220538 84 273 2.0 5.0 0.00 0.00 0.00 56 1011.2
20210801220128 84 276 2.0 5.0 0.00 0.00 0.00 58 1011.1
20210801215535 84 285 3.0 5.0 0.00 0.00 0.00 57 1011.2
20210801215036 83 271 2.0 5.0 0.00 0.00 0.00 60 1011.1
20210801214623 83 290 2.0 5.0 0.00 0.00 0.00 58 1011.1
20210801214046 83 262 3.0 5.0 0.00 0.00 0.00 58 1011.1
20210801213543 83 265 1.0 8.0 0.00 0.00 0.00 59 1011.2
20210801213052 84 289 3.0 8.0 0.00 0.00 0.00 56 1011.2
20210801212537 85 280 3.0 8.0 0.00 0.00 0.00 57 1011.1
20210801212042 85 266 3.0 5.0 0.00 0.00 0.00 55 1011.2
20210801211657 86 249 2.0 4.0 0.00 0.00 0.00 65 1011.2
20210801211045 85 248 1.0 4.0 0.00 0.00 0.00 70 1011.2
20210801210539 85 239 1.0 3.0 0.00 0.00 0.00 69 1011.2
20210801210143 85 285 1.0 2.0 0.00 0.00 0.00 66 1011.3
20210801205531 85 263 0.0 3.0 0.00 0.00 0.00 67 1011.4
20210801205057 85 247 1.0 4.0 0.00 0.00 0.00 67 1011.2
20210801204648 84 281 0.0 4.0 0.00 0.00 0.00 70 1011.4
20210801204031 84 171 0.0 2.0 0.00 0.00 0.00 68 1011.4
20210801203537 84 231 1.0 2.0 0.00 0.00 0.00 68 1011.5
20210801203145 83 207 1.0 4.0 0.00 0.00 0.00 68 1011.5
20210801202549 83 257 2.0 5.0 0.00 0.00 0.00 70 1011.6
20210801202059 83 253 2.0 5.0 0.00 0.00 0.00 70 1011.8
20210801201601 83 257 0.0 3.0 0.00 0.00 0.00 71 1011.8
20210801201033 83 311 0.0 4.0 0.00 0.00 0.00 69 1011.8
20210801200537 83 252 2.0 4.0 0.00 0.00 0.00 68 1011.9
20210801200109 83 79 1.0 4.0 0.00 0.00 0.00 72 1011.9
20210801195533 82 70 1.0 5.0 0.00 0.00 0.00 71 1012.0
20210801195032 82 294 3.0 5.0 0.00 0.00 0.00 67 1012.0
20210801194652 82 257 1.0 3.0 0.00 0.00 0.00 68 1012.1
20210801194039 82 251 1.0 3.0 0.00 0.00 0.00 70 1012.1
20210801193535 82 278 1.0 3.0 0.00 0.00 0.00 70 1012.1
20210801193109 82 328 1.0 4.0 0.00 0.00 0.00 71 1012.2
20210801192531 82 252 2.0 4.0 0.00 0.00 0.00 68 1012.5
20210801192035 82 229 1.0 5.0 0.00 0.00 0.00 71 1012.5
20210801191612 82 241 2.0 5.0 0.00 0.00 0.00 68 1012.5
20210801191047 82 277 1.0 4.0 0.00 0.00 0.00 68 1012.7
20210801190539 82 173 1.0 3.0 0.00 0.00 0.00 72 1012.5
20210801190201 81 145 0.0 5.0 0.00 0.00 0.00 73 1012.6
20210801185534 81 239 1.0 5.0 0.00 0.00 0.00 73 1012.7
20210801185030 81 299 0.0 4.0 0.00 0.00 0.00 71 1012.9
20210801184721 80 211 2.0 4.0 0.00 0.00 0.00 74 1013.0
20210801184044 80 118 1.0 5.0 0.00 0.00 0.00 75 1013.0
20210801183535 80 95 2.0 5.0 0.00 0.00 0.00 73 1013.3
20210801183112 80 220 0.0 4.0 0.00 0.00 0.00 76 1013.2
20210801182540 80 181 2.0 4.0 0.00 0.00 0.00 75 1013.3
20210801182031 79 128 2.0 5.0 0.00 0.00 0.00 76 1013.4
20210801181636 79 117 3.0 5.0 0.00 0.00 0.00 77 1013.4
20210801181036 79 139 1.0 3.0 0.00 0.00 0.00 77 1013.5
20210801180534 78 0 1.0 3.0 0.00 0.00 0.00 79 1013.6
20210801180140 78 0 0.0 2.0 0.00 0.00 0.00 80 1013.5
20210801175539 78 61 0.0 2.0 0.00 0.00 0.00 80 1013.6
20210801175033 77 223 1.0 1.0 0.00 0.00 0.00 80 1013.6
20210801174709 77 0 0.0 1.0 0.00 0.00 0.00 80 1013.8
20210801174033 77 0 0.0 1.0 0.00 0.00 0.00 80 1013.8
20210801173619 76 0 0.0 1.0 0.00 0.00 0.00 82 1013.6
20210801173322 76 0 0.0 1.0 0.00 0.00 0.00 83 1013.6
20210801172547 75 0 0.0 1.0 0.00 0.00 0.00 82 1013.6
20210801172036 75 0 0.0 1.0 0.00 0.00 0.00 83 1013.7
20210801171734 75 96 0.0 1.0 0.00 0.00 0.00 82 1013.8
20210801171041 75 0 0.0 2.0 0.00 0.00 0.00 83 1013.6
20210801170531 75 75 0.0 2.0 0.00 0.00 0.00 81 1013.7
20210801170211 76 95 0.0 3.0 0.00 0.00 0.00 81 1013.7
20210801165542 76 89 1.0 4.0 0.00 0.00 0.00 79 1013.6
20210801165042 76 108 2.0 4.0 0.00 0.00 0.00 78 1013.6
20210801164710 76 89 2.0 4.0 0.00 0.00 0.00 78 1013.5
20210801164036 76 78 2.0 4.0 0.00 0.00 0.00 80 1013.7
20210801163539 77 124 2.0 5.0 0.00 0.00 0.00 79 1013.7
20210801163122 77 113 2.0 7.0 0.00 0.00 0.00 78 1013.8
20210801162604 77 101 5.0 8.0 0.00 0.00 0.00 76 1013.8
20210801162034 77 141 4.0 8.0 0.00 0.00 0.00 76 1013.8
20210801161705 78 128 2.0 5.0 0.00 0.00 0.00 78 1013.8
20210801161032 78 113 2.0 5.0 0.00 0.00 0.00 75 1013.9
20210801160533 78 68 3.0 5.0 0.00 0.00 0.00 75 1013.9
20210801160133 78 129 2.0 6.0 0.00 0.00 0.00 76 1013.9
20210801155533 78 162 2.0 6.0 0.00 0.00 0.00 77 1013.9
20210801155043 78 153 3.0 6.0 0.00 0.00 0.00 80 1013.9
20210801154615 77 116 4.0 6.0 0.00 0.00 0.00 78 1014.0
20210801154035 76 135 3.0 6.0 0.00 0.00 0.00 79 1013.9
20210801153606 76 138 2.0 6.0 0.00 0.00 0.00 80 1013.9
20210801153110 76 132 3.0 6.0 0.00 0.00 0.00 81 1013.9
20210801152532 76 141 4.0 6.0 0.00 0.00 0.00 79 1013.8
20210801152041 76 115 3.0 5.0 0.00 0.00 0.00 80 1013.7
20210801151724 76 72 2.0 5.0 0.00 0.00 0.00 80 1013.6
20210801151034 76 134 3.0 5.0 0.00 0.00 0.00 79 1013.5
20210801150537 76 149 3.0 5.0 0.00 0.00 0.00 79 1013.4
20210801150105 76 88 3.0 6.0 0.00 0.00 0.00 77 1013.4
20210801145536 76 109 3.0 6.0 0.00 0.00 0.00 76 1013.3
20210801145033 77 131 2.0 3.0 0.00 0.00 0.00 76 1013.4
20210801144618 77 153 0.0 3.0 0.00 0.00 0.00 75 1013.3
20210801144034 77 0 1.0 3.0 0.00 0.00 0.00 74 1013.2
20210801143541 77 109 1.0 4.0 0.00 0.00 0.00 75 1013.0
20210801143113 77 125 1.0 4.0 0.00 0.00 0.00 75 1013.0
20210801142537 77 171 0.0 2.0 0.00 0.00 0.00 72 1013.1
20210801142035 77 41 0.0 2.0 0.00 0.00 0.00 73 1013.0
20210801141600 76 111 1.0 2.0 0.00 0.00 0.00 75 1013.1
20210801141100 76 0 0.0 3.0 0.00 0.00 0.00 75 1012.9
20210801140541 75 0 1.0 3.0 0.00 0.00 0.00 77 1012.7
20210801140108 76 102 1.0 3.0 0.00 0.00 0.00 76 1012.7
20210801135540 75 93 0.0 4.0 0.00 0.00 0.00 79 1012.8
20210801135040 75 0 1.0 4.0 0.00 0.00 0.00 76 1012.8
20210801134629 75 42 1.0 5.0 0.00 0.00 0.00 78 1012.8
20210801134031 75 346 1.0 7.0 0.00 0.00 0.00 78 1012.9
20210801133534 75 120 3.0 7.0 0.00 0.00 0.00 75 1012.7
20210801133118 75 7 1.0 4.0 0.00 0.00 0.00 77 1012.7
20210801132537 75 92 2.0 4.0 0.00 0.00 0.00 77 1012.5
20210801132031 75 52 1.0 3.0 0.00 0.00 0.00 76 1012.7
20210801131709 75 23 1.0 3.0 0.00 0.00 0.00 76 1012.7
20210801131031 75 30 1.0 3.0 0.00 0.00 0.00 75 1012.7
20210801130537 75 0 0.0 3.0 0.00 0.00 0.00 78 1012.6
20210801130118 75 131 0.0 4.0 0.00 0.00 0.00 79 1012.5
20210801125559 75 356 1.0 4.0 0.00 0.00 0.00 77 1012.5
20210801125034 75 98 0.0 2.0 0.00 0.00 0.00 77 1012.5
20210801124603 75 88 0.0 2.0 0.00 0.00 0.00 80 1012.7
20210801124032 75 115 0.0 1.0 0.00 0.00 0.00 82 1012.7
20210801123531 74 0 0.0 1.0 0.00 0.00 0.00 82 1012.8
20210801123238 74 121 0.0 1.0 0.00 0.00 0.00 85 1012.6
20210801122543 73 0 0.0 1.0 0.00 0.00 0.00 84 1012.7
20210801122037 73 0 0.0 1.0 0.00 0.00 0.00 87 1012.6
20210801121704 72 0 0.0 1.0 0.00 0.00 0.00 88 1012.8
20210801121034 72 0 0.0 1.0 0.00 0.00 0.00 90 1012.8
20210801120539 71 0 0.0 1.0 0.00 0.00 0.00 87 1012.7
20210801120149 71 0 0.0 2.0 0.00 0.00 0.00 89 1012.5
20210801115532 71 37 0.0 2.0 0.00 0.00 0.00 89 1012.4
20210801115034 71 342 0.0 1.0 0.00 0.00 0.00 89 1012.5
20210801114638 71 186 0.0 1.0 0.00 0.00 0.00 89 1012.7
20210801114034 71 186 0.0 1.0 0.00 0.00 0.00 91 1012.9
20210801113533 70 186 0.0 1.0 0.00 0.00 0.00 91 1012.9
20210801113055 70 272 0.0 1.0 0.00 0.00 0.00 91 1012.7
20210801112532 70 0 0.0 1.0 0.00 0.00 0.00 91 1012.9
20210801112051 70 272 0.0 1.0 0.00 0.00 0.00 91 1012.8
20210801111535 70 272 0.0 1.0 0.00 0.00 0.00 92 1012.9
20210801111041 70 272 0.0 1.0 0.00 0.00 0.00 92 1012.9
20210801110532 69 272 0.0 1.0 0.00 0.00 0.00 92 1013.1
20210801110051 69 274 0.0 2.0 0.00 0.00 0.00 93 1013.1
20210801105534 69 276 0.0 3.0 0.00 0.00 0.00 93 1013.1
20210801105035 69 283 2.0 3.0 0.00 0.00 0.00 93 1013.1
20210801104604 69 286 1.0 2.0 0.00 0.00 0.00 93 1013.0
20210801104035 69 279 0.0 1.0 0.00 0.00 0.00 93 1013.1
20210801103545 69 0 0.0 2.0 0.00 0.00 0.00 92 1013.1
20210801103128 69 0 0.0 2.0 0.00 0.00 0.00 92 1013.0
20210801102532 69 281 1.0 1.0 0.00 0.00 0.00 92 1013.0
20210801102049 69 274 0.0 0.0 0.00 0.00 0.00 91 1012.8
20210801101553 69 0 0.0 1.0 0.00 0.00 0.00 91 1012.8
20210801101050 69 0 0.0 1.0 0.00 0.00 0.00 91 1013.0
20210801100534 70 274 0.0 1.0 0.00 0.00 0.00 90 1013.0
20210801100108 70 0 0.0 1.0 0.00 0.00 0.00 90 1013.0
20210801095544 70 274 0.0 1.0 0.00 0.00 0.00 89 1013.0
20210801095036 70 0 0.0 1.0 0.00 0.00 0.00 88 1013.0
20210801094656 70 278 0.0 1.0 0.00 0.00 0.00 88 1013.0
20210801094039 70 341 0.0 1.0 0.00 0.00 0.00 88 1013.0
20210801093534 70 0 0.0 1.0 0.00 0.00 0.00 88 1013.1
20210801093232 70 342 0.0 2.0 0.00 0.00 0.00 87 1013.1
20210801092534 70 342 0.0 2.0 0.00 0.00 0.00 87 1013.2
20210801092040 70 338 0.0 3.0 0.00 0.00 0.00 87 1013.1
20210801091605 70 0 0.0 3.0 0.00 0.00 0.00 87 1013.1
20210801091033 70 4 1.0 4.0 0.00 0.00 0.00 87 1013.1
20210801090533 71 275 1.0 4.0 0.00 0.00 0.00 86 1013.0
20210801090140 71 268 1.0 3.0 0.00 0.00 0.00 86 1013.0
20210801085534 71 352 1.0 3.0 0.00 0.00 0.00 86 1012.9
20210801085036 71 13 0.0 6.0 0.00 0.00 0.00 85 1013.0
20210801084617 71 322 2.0 6.0 0.00 0.00 0.00 84 1013.0